Terminal Aerodrome Forecast
Issued by NWS Billings, MT

Home | Current Version | Previous Version | Graphics & Text | Print | Product List | Glossary On
Versions: 1 2 3 4 5 6 7 8 9 10 11 12 13 14 15 16 17 18 19 20 21 22 23 24 25 26 27 28
269
FTUS45 KBYZ 220539
TAFMLS
TAF
KMLS 220539Z 2206/2306 14016G24KT P6SM BKN009 OVC015
     FM221400 13012KT P6SM SCT015 SCT090
     FM222000 30009KT P6SM SCT200=

USA.gov is the U.S. government's official web portal to all federal, state and local government web resources and services.